Time;durP1;ratioP1;P1;durP2;ratioP2;P2;SDS_P1;SDS_P2;PMS_P1;PMS_P2;Temp;Humidity;BMP_temperature;BMP_pressure;BME280_temperature;BME280_humidity;BME280_pressure;Samples;Min_cycle;Max_cycle;Signal;HPM_P1;HPM_P2
2022/01/08 00:02:15;;;;;;;;;0.00;0.00;;;;;4.98;71.55;101186.78;4995514;28;45353;-78
2022/01/08 00:04:41;;;;;;;;;0.00;0.00;;;;;4.98;71.55;101213.88;4996675;28;45659;-78
2022/01/08 00:07:06;;;;;;;;;0.00;0.00;;;;;4.84;72.41;101207.88;4995590;28;45218;-77
2022/01/08 00:09:32;;;;;;;;;1.00;0.00;;;;;4.88;72.47;101225.59;4993089;28;45340;-77
2022/01/08 00:11:57;;;;;;;;;0.25;0.00;;;;;4.79;72.02;101219.84;4997308;28;45275;-77
2022/01/08 00:14:24;;;;;;;;;1.00;0.00;;;;;4.76;71.65;101227.56;4991737;28;45458;-76
2022/01/08 00:16:50;;;;;;;;;0.00;0.00;;;;;4.79;72.00;101245.13;4997901;28;45755;-76
2022/01/08 00:19:15;;;;;;;;;0.00;0.00;;;;;4.61;72.09;101229.31;4996736;28;45400;-77
2022/01/08 00:21:41;;;;;;;;;0.00;0.00;;;;;4.53;72.89;101213.19;5001122;28;45417;-77
2022/01/08 00:24:06;;;;;;;;;0.00;0.00;;;;;4.65;72.98;101241.75;4999123;28;45287;-77
2022/01/08 00:26:32;;;;;;;;;0.00;0.00;;;;;4.44;72.62;101216.19;5001158;28;45280;-77
2022/01/08 00:28:57;;;;;;;;;0.00;0.00;;;;;4.62;72.64;101249.44;4999353;28;45382;-77
2022/01/08 00:31:22;;;;;;;;;0.00;0.00;;;;;4.60;72.98;101251.09;5001200;28;45556;-78
2022/01/08 00:33:48;;;;;;;;;0.00;0.00;;;;;4.34;72.65;101213.91;4992651;28;45421;-77
2022/01/08 00:36:13;;;;;;;;;0.00;0.00;;;;;4.45;72.82;101243.25;5000627;28;45396;-77
2022/01/08 00:38:39;;;;;;;;;0.00;0.00;;;;;4.39;72.95;101238.56;5007856;28;45310;-77
2022/01/08 00:41:04;;;;;;;;;0.00;0.00;;;;;4.25;73.15;101231.66;5001015;28;46379;-77
2022/01/08 00:43:29;;;;;;;;;0.00;0.00;;;;;4.36;73.71;101267.19;4995707;28;45370;-77
2022/01/08 00:45:55;;;;;;;;;0.00;0.00;;;;;4.29;72.95;101253.72;5002293;28;45282;-78
2022/01/08 00:48:22;;;;;;;;;0.00;0.00;;;;;4.43;72.72;101277.22;5000417;28;45432;-77
2022/01/08 00:50:48;;;;;;;;;0.00;0.00;;;;;4.10;73.01;101228.19;5002119;28;45155;-77
2022/01/08 00:53:13;;;;;;;;;0.00;0.00;;;;;4.17;73.45;101253.88;4991838;28;47162;-77
2022/01/08 00:55:38;;;;;;;;;0.50;0.00;;;;;4.07;73.54;101234.16;5001292;28;45327;-78
2022/01/08 00:58:04;;;;;;;;;0.50;0.00;;;;;3.93;73.34;101227.22;4995659;28;45339;-77
2022/01/08 01:00:29;;;;;;;;;0.25;0.25;;;;;4.20;73.74;101275.91;5000385;28;47159;-77
2022/01/08 01:02:55;;;;;;;;;0.00;0.00;;;;;4.22;74.34;101292.56;4995198;28;45384;-77
2022/01/08 01:05:21;;;;;;;;;1.00;1.00;;;;;3.97;74.09;101244.88;5001603;28;45325;-77
2022/01/08 01:07:47;;;;;;;;;0.50;0.50;;;;;4.12;73.96;101274.56;4995341;28;45464;-77
2022/01/08 01:10:13;;;;;;;;;1.00;1.00;;;;;4.25;73.81;101297.97;5001708;28;45250;-76
2022/01/08 01:12:39;;;;;;;;;0.00;0.00;;;;;4.04;75.04;101254.91;4995266;28;45740;-77
2022/01/08 01:15:06;;;;;;;;;1.00;1.00;;;;;4.24;74.99;101303.16;4997294;28;45456;-77
2022/01/08 01:17:31;;;;;;;;;2.75;0.50;;;;;4.18;74.06;101295.84;4995359;28;45473;-77
2022/01/08 01:19:56;;;;;;;;;1.00;1.00;;;;;4.17;73.69;101296.66;4998037;28;45245;-77
2022/01/08 01:22:27;;;;;;;;;1.00;1.00;;;;;3.93;73.87;101251.66;4996931;28;45413;-77
2022/01/08 01:25:00;;;;;;;;;1.00;1.00;;;;;4.07;73.97;101276.00;4999055;28;45417;-76
2022/01/08 01:30:03;;;;;;;;;2.00;0.00;;;;;3.98;73.76;101259.78;4999885;28;45506;-77
2022/01/08 01:46:59;;;;;;;;;0.75;0.75;;;;;4.08;74.14;101283.03;4994960;28;45423;-77
2022/01/08 01:48:56;;;;;;;;;2.00;2.00;;;;;4.02;73.73;101278.34;4992707;28;45436;-77
2022/01/08 01:51:23;;;;;;;;;1.50;1.00;;;;;3.77;74.36;101239.41;5000932;28;45451;-77
2022/01/08 01:53:50;;;;;;;;;1.00;1.00;;;;;4.13;73.56;101296.38;4994444;28;46605;-78
2022/01/08 01:56:20;;;;;;;;;2.75;0.00;;;;;4.07;74.11;101290.81;5001159;28;45261;-77
2022/01/08 01:58:46;;;;;;;;;2.50;1.75;;;;;4.03;74.27;101284.47;4992456;28;45407;-77
2022/01/08 02:01:12;;;;;;;;;1.25;1.25;;;;;3.85;74.02;101252.94;4993609;28;45330;-77
2022/01/08 02:03:37;;;;;;;;;3.50;2.00;;;;;4.02;74.29;101285.28;4994005;28;46439;-77
2022/01/08 02:06:03;;;;;;;;;1.75;1.75;;;;;3.97;74.36;101271.03;4999383;28;45272;-77
2022/01/08 02:08:29;;;;;;;;;2.00;2.00;;;;;3.96;73.99;101277.09;4993082;28;45345;-77
2022/01/08 02:10:55;;;;;;;;;3.75;2.75;;;;;3.93;74.46;101275.22;5000602;28;46074;-77
2022/01/08 02:13:21;;;;;;;;;2.00;2.00;;;;;3.99;74.04;101290.34;4994370;28;45689;-77
2022/01/08 02:15:50;;;;;;;;;2.25;2.00;;;;;3.98;74.56;101291.19;4996913;28;45255;-76
2022/01/08 02:18:15;;;;;;;;;2.00;1.50;;;;;4.01;73.53;101300.09;4998647;28;45367;-77
2022/01/08 02:20:40;;;;;;;;;2.00;2.00;;;;;3.95;74.68;101294.50;4997434;28;45578;-77
2022/01/08 02:23:06;;;;;;;;;2.00;1.00;;;;;3.74;74.85;101257.53;4992322;28;47235;-77
2022/01/08 02:25:31;;;;;;;;;2.00;2.00;;;;;3.81;74.48;101284.97;4994120;28;45366;-77
2022/01/08 02:27:56;;;;;;;;;3.00;1.25;;;;;3.99;75.03;101321.75;4997798;28;45416;-77
2022/01/08 02:30:22;;;;;;;;;1.50;1.25;;;;;3.92;74.30;101303.88;4998943;28;45884;-77
2022/01/08 02:32:47;;;;;;;;;2.00;2.00;;;;;3.92;74.21;101310.03;4993582;28;47472;-77
2022/01/08 02:35:13;;;;;;;;;2.00;2.00;;;;;3.95;75.00;101315.44;4993416;28;45392;-77
2022/01/08 02:37:38;;;;;;;;;1.00;1.00;;;;;3.80;74.40;101286.66;4998090;28;45265;-76
2022/01/08 02:40:06;;;;;;;;;2.00;2.00;;;;;3.88;74.52;101313.25;4988346;28;46152;-76
2022/01/08 02:42:39;;;;;;;;;2.00;2.00;;;;;3.83;74.44;101290.25;4992611;28;47492;-76
2022/01/08 02:45:05;;;;;;;;;3.00;1.00;;;;;3.84;74.63;101298.22;4992911;28;45234;-76
2022/01/08 02:47:30;;;;;;;;;3.00;1.00;;;;;3.88;74.86;101308.03;4998338;28;45265;-76
2022/01/08 02:49:55;;;;;;;;;4.50;2.00;;;;;3.68;74.97;101278.09;4994850;28;45226;-77
2022/01/08 02:52:22;;;;;;;;;2.00;2.00;;;;;3.89;74.83;101316.75;4995959;28;45548;-77
2022/01/08 02:54:48;;;;;;;;;3.00;2.00;;;;;3.59;74.96;101281.06;4997755;28;45428;-77
2022/01/08 02:57:13;;;;;;;;;2.00;2.00;;;;;3.78;75.27;101313.50;4983961;28;45159;-77
2022/01/08 02:59:39;;;;;;;;;1.75;1.00;;;;;3.68;74.85;101293.75;4996162;28;45534;-77
2022/01/08 03:02:04;;;;;;;;;1.00;1.00;;;;;3.74;74.84;101308.91;5012780;28;46358;-77
2022/01/08 03:04:29;;;;;;;;;3.00;3.00;;;;;3.68;74.85;101305.94;4995271;28;45396;-77
2022/01/08 03:06:55;;;;;;;;;2.00;2.00;;;;;3.73;75.04;101322.81;4997812;28;45250;-77
2022/01/08 03:09:20;;;;;;;;;3.00;1.50;;;;;3.71;75.13;101322.69;4995165;28;45414;-77
2022/01/08 03:11:46;;;;;;;;;1.50;1.50;;;;;3.55;74.56;101296.44;4998275;28;45393;-77
2022/01/08 03:14:11;;;;;;;;;2.50;2.50;;;;;3.56;74.35;101301.78;4990931;28;44815;-77
2022/01/08 03:16:37;;;;;;;;;2.00;2.00;;;;;3.63;75.31;101310.00;4999468;28;45360;-77
2022/01/08 03:19:12;;;;;;;;;6.00;1.00;;;;;3.47;74.89;101280.28;4993077;28;45387;-77
2022/01/08 03:21:43;;;;;;;;;1.25;1.25;;;;;3.61;75.05;101306.38;4998870;28;47483;-78
2022/01/08 03:24:14;;;;;;;;;3.00;1.50;;;;;3.30;74.86;101257.47;4993193;28;46098;-77
2022/01/08 03:26:40;;;;;;;;;2.50;2.00;;;;;3.35;76.00;101264.78;4998820;28;45290;-77
2022/01/08 03:29:05;;;;;;;;;2.00;2.00;;;;;3.53;74.17;101301.59;5012028;28;46120;-77
2022/01/08 03:31:30;;;;;;;;;2.00;1.00;;;;;3.42;74.52;101288.66;4990883;28;46477;-77
2022/01/08 03:33:56;;;;;;;;;1.75;1.75;;;;;3.46;75.17;101312.47;4988254;28;45475;-77
2022/01/08 03:36:23;;;;;;;;;1.00;1.00;;;;;3.41;74.94;101313.00;4999557;28;45162;-77
2022/01/08 03:38:50;;;;;;;;;1.25;1.00;;;;;3.38;74.82;101313.72;4989849;28;45344;-77
2022/01/08 03:41:15;;;;;;;;;3.75;2.00;;;;;3.20;75.32;101289.09;4999301;28;46598;-77
2022/01/08 03:43:40;;;;;;;;;1.00;1.00;;;;;2.98;75.36;101250.28;4993440;28;45313;-77
2022/01/08 03:46:06;;;;;;;;;2.00;1.00;;;;;3.32;75.35;101322.06;4999868;28;45248;-76
2022/01/08 03:51:11;;;;;;;;;1.00;1.00;;;;;3.22;75.86;101311.88;4989933;28;45170;-76
2022/01/08 03:53:37;;;;;;;;;0.00;0.00;;;;;3.11;75.35;101284.19;4995168;28;45394;-76
2022/01/08 03:56:02;;;;;;;;;0.50;0.00;;;;;3.12;75.74;101286.91;5002953;28;45186;-76
2022/01/08 03:58:28;;;;;;;;;1.00;1.00;;;;;2.94;74.52;101262.28;4995931;28;45428;-76
2022/01/08 04:00:54;;;;;;;;;1.50;0.75;;;;;3.24;75.77;101304.13;5002540;28;45351;-76
2022/01/08 04:03:20;;;;;;;;;1.50;0.50;;;;;3.09;75.50;101280.59;4995962;28;45333;-76
2022/01/08 04:05:46;;;;;;;;;1.00;1.00;;;;;3.13;75.34;101293.91;5002735;28;45510;-76
2022/01/08 04:08:12;;;;;;;;;1.00;1.00;;;;;3.22;75.90;101314.50;4995936;28;45462;-76
2022/01/08 04:10:37;;;;;;;;;0.50;0.50;;;;;3.04;75.55;101280.28;5002513;28;46444;-76
2022/01/08 04:13:09;;;;;;;;;2.25;0.50;;;;;3.16;76.05;101306.25;4996600;28;45588;-76
2022/01/08 04:15:38;;;;;;;;;1.00;1.00;;;;;3.17;76.13;101305.47;5001249;28;45352;-77
2022/01/08 04:18:04;;;;;;;;;3.00;2.00;;;;;3.30;76.39;101317.56;4997583;28;45511;-79
2022/01/08 04:20:29;;;;;;;;;3.25;2.00;;;;;3.32;76.49;101313.34;4999554;28;46532;-75
2022/01/08 04:22:55;;;;;;;;;3.50;2.00;;;;;3.25;75.76;101301.63;4998857;28;44798;-78
2022/01/08 04:25:23;;;;;;;;;2.25;1.25;;;;;3.23;75.75;101292.78;5016386;28;45284;-76
2022/01/08 04:27:48;;;;;;;;;4.25;2.00;;;;;3.35;76.88;101305.69;5000035;28;45324;-76
2022/01/08 04:30:14;;;;;;;;;2.75;2.75;;;;;3.43;76.19;101307.06;5001931;28;46408;-75
2022/01/08 04:32:40;;;;;;;;;3.25;3.25;;;;;2.97;76.07;101222.34;4999957;28;45454;-75
2022/01/08 04:35:06;;;;;;;;;4.50;3.25;;;;;3.47;76.59;101297.69;4994747;28;44868;-75
2022/01/08 04:37:31;;;;;;;;;3.25;3.25;;;;;3.46;76.49;101299.41;4999775;28;46457;-76
2022/01/08 04:39:57;;;;;;;;;1.25;1.25;;;;;3.46;76.72;101294.19;4995619;28;46708;-76
2022/01/08 04:42:22;;;;;;;;;5.50;3.25;;;;;3.49;76.29;101293.47;4998669;28;45287;-76
2022/01/08 04:44:48;;;;;;;;;2.75;2.00;;;;;3.50;76.25;101285.72;5000528;28;45282;-76
2022/01/08 04:47:14;;;;;;;;;1.50;1.00;;;;;3.55;76.44;101294.72;4999029;28;45317;-77
2022/01/08 04:49:39;;;;;;;;;2.00;1.00;;;;;3.39;76.29;101278.97;4989278;28;47096;-77
2022/01/08 04:52:05;;;;;;;;;2.25;2.00;;;;;3.43;76.91;101295.72;4998000;28;46014;-76
2022/01/08 04:54:30;;;;;;;;;2.00;1.00;;;;;3.54;76.56;101316.47;4997524;28;45396;-76
2022/01/08 04:56:56;;;;;;;;;2.75;1.25;;;;;3.40;76.13;101298.16;4998427;28;45990;-77
2022/01/08 04:59:21;;;;;;;;;3.00;3.00;;;;;3.66;76.71;101338.91;5000041;28;47075;-77
2022/01/08 05:01:47;;;;;;;;;2.00;2.00;;;;;3.62;76.02;101336.94;4999129;28;45381;-77
2022/01/08 05:04:13;;;;;;;;;2.00;2.00;;;;;3.61;76.38;101327.28;4995851;28;45410;-76
2022/01/08 05:06:38;;;;;;;;;3.00;3.00;;;;;3.71;76.09;101342.72;5000913;28;45441;-78
2022/01/08 05:09:04;;;;;;;;;1.25;1.25;;;;;3.71;76.31;101340.09;5025537;28;47081;-77
2022/01/08 05:11:30;;;;;;;;;1.00;1.00;;;;;3.67;76.61;101318.13;5000734;28;45271;-77
2022/01/08 05:13:57;;;;;;;;;1.00;1.00;;;;;3.81;76.19;101319.84;4996502;28;45322;-76
2022/01/08 05:16:25;;;;;;;;;3.00;1.50;;;;;3.73;76.38;101294.94;5000049;28;45896;-77
2022/01/08 05:18:54;;;;;;;;;1.25;1.00;;;;;3.97;75.94;101318.13;4993626;28;47476;-77
2022/01/08 05:21:28;;;;;;;;;0.50;0.50;;;;;4.01;76.84;101315.78;4987147;28;45444;-77
2022/01/08 05:23:55;;;;;;;;;2.75;1.00;;;;;4.00;76.51;101295.66;4990656;28;45423;-77
2022/01/08 05:26:21;;;;;;;;;0.00;0.00;;;;;3.88;77.15;101279.25;5001434;28;45262;-77
2022/01/08 05:28:46;;;;;;;;;2.25;1.00;;;;;3.90;76.51;101271.50;4996924;28;48415;-77
2022/01/08 05:31:15;;;;;;;;;2.00;2.00;;;;;4.25;76.19;101320.63;5001364;28;45329;-77
2022/01/08 05:33:41;;;;;;;;;1.00;1.00;;;;;4.10;76.18;101280.53;4992914;28;45345;-77
2022/01/08 05:36:07;;;;;;;;;0.75;0.75;;;;;4.37;76.37;101299.50;4999665;28;46422;-77
2022/01/08 05:38:32;;;;;;;;;1.00;1.00;;;;;4.39;76.15;101296.16;4990499;28;48081;-77
2022/01/08 05:40:58;;;;;;;;;2.00;0.75;;;;;4.43;75.34;101286.78;4999869;28;45427;-77
2022/01/08 05:43:23;;;;;;;;;3.00;1.00;;;;;4.43;75.89;101276.31;4992522;28;45314;-77
2022/01/08 05:45:48;;;;;;;;;0.50;0.00;;;;;4.58;76.07;101289.38;5001116;28;45246;-77
2022/01/08 05:48:14;;;;;;;;;2.00;0.00;;;;;4.59;76.24;101281.56;4989934;28;48009;-76
2022/01/08 05:50:40;;;;;;;;;0.00;0.00;;;;;4.53;75.58;101259.41;5000891;28;45390;-77
2022/01/08 05:53:05;;;;;;;;;1.50;0.00;;;;;4.68;75.35;101276.88;4995732;28;45451;-77
2022/01/08 05:55:31;;;;;;;;;0.00;0.00;;;;;4.65;75.38;101262.69;4995539;28;45565;-77
2022/01/08 05:57:56;;;;;;;;;3.00;0.00;;;;;4.35;75.76;101212.19;4992954;28;46395;-76
2022/01/08 06:00:22;;;;;;;;;1.75;0.75;;;;;4.84;75.91;101288.19;4999158;28;46014;-76
2022/01/08 06:02:47;;;;;;;;;2.00;1.75;;;;;4.84;75.09;101283.84;4992709;28;45469;-74
2022/01/08 06:05:13;;;;;;;;;2.00;2.00;;;;;4.69;76.38;101256.81;5000430;28;45587;-74
2022/01/08 06:07:38;;;;;;;;;1.00;1.00;;;;;4.87;76.08;101291.91;4996939;28;45518;-73
2022/01/08 06:10:04;;;;;;;;;1.00;1.00;;;;;4.98;75.23;101299.41;4984147;28;45237;-74
2022/01/08 06:12:30;;;;;;;;;0.50;0.50;;;;;4.97;74.97;101289.78;4988799;28;45421;-75
2022/01/08 06:14:55;;;;;;;;;1.25;0.75;;;;;4.98;75.36;101281.09;4996055;28;45179;-74
2022/01/08 06:17:21;;;;;;;;;0.25;0.25;;;;;5.01;75.56;101283.88;4995775;28;46721;-74
2022/01/08 06:19:46;;;;;;;;;0.50;0.50;;;;;5.01;75.85;101278.63;4996726;28;45151;-74
2022/01/08 06:22:11;;;;;;;;;0.00;0.00;;;;;5.09;75.82;101279.94;4997235;28;45234;-74
2022/01/08 06:24:37;;;;;;;;;2.50;1.50;;;;;5.11;75.60;101266.09;4997729;28;45527;-74
2022/01/08 06:27:03;;;;;;;;;0.00;0.00;;;;;5.07;75.50;101261.53;4996772;28;47304;-75
2022/01/08 06:29:28;;;;;;;;;2.00;1.00;;;;;5.13;75.03;101268.81;4999592;28;45230;-74
2022/01/08 06:31:53;;;;;;;;;0.75;0.50;;;;;4.98;75.81;101249.66;4997138;28;45346;-74
2022/01/08 06:34:19;;;;;;;;;3.00;1.00;;;;;4.92;75.83;101250.22;4992190;28;46010;-74
2022/01/08 06:36:47;;;;;;;;;2.50;0.00;;;;;5.15;75.01;101282.88;5014157;28;47351;-74
2022/01/08 06:39:13;;;;;;;;;1.00;0.00;;;;;5.11;75.89;101267.84;4993397;28;45332;-75
2022/01/08 06:41:38;;;;;;;;;1.00;1.00;;;;;5.10;75.30;101258.19;5015568;28;45358;-74
2022/01/08 06:44:04;;;;;;;;;2.50;0.50;;;;;5.18;75.03;101267.31;4990944;28;45528;-74
2022/01/08 06:46:29;;;;;;;;;2.00;1.00;;;;;5.09;76.04;101230.16;5000157;28;46440;-74
2022/01/08 06:48:54;;;;;;;;;1.00;1.00;;;;;5.20;75.98;101244.72;4993400;28;45404;-74
2022/01/08 06:51:20;;;;;;;;;0.75;0.75;;;;;4.97;76.52;101205.94;5015401;28;45163;-74
2022/01/08 06:53:45;;;;;;;;;4.25;1.00;;;;;5.21;75.68;101235.16;4992185;28;47043;-74
2022/01/08 06:56:10;;;;;;;;;1.25;0.25;;;;;5.29;75.42;101250.47;4998620;28;46900;-74
2022/01/08 06:58:36;;;;;;;;;0.00;0.00;;;;;4.98;75.39;101181.53;4995489;28;45298;-74
2022/01/08 07:01:02;;;;;;;;;2.00;0.75;;;;;5.32;75.99;101232.28;5000165;28;45740;-74
2022/01/08 07:03:27;;;;;;;;;0.25;0.25;;;;;5.27;75.53;101219.78;4994025;28;45424;-75
2022/01/08 07:05:52;;;;;;;;;0.25;0.25;;;;;5.34;75.60;101224.50;5012366;28;47496;-75
2022/01/08 07:08:18;;;;;;;;;0.00;0.00;;;;;5.33;75.99;101217.47;4995934;28;45239;-75
2022/01/08 07:10:43;;;;;;;;;2.00;0.00;;;;;5.52;75.46;101246.44;5012685;28;45779;-75
2022/01/08 07:13:09;;;;;;;;;1.00;1.00;;;;;5.54;75.31;101236.91;4994350;28;45425;-75
2022/01/08 07:15:34;;;;;;;;;1.25;0.25;;;;;5.48;74.79;101226.09;4996857;28;46407;-75
2022/01/08 07:18:00;;;;;;;;;0.75;0.75;;;;;5.55;75.90;101225.63;4997546;28;45361;-74
2022/01/08 07:20:25;;;;;;;;;0.75;0.00;;;;;5.46;75.66;101204.19;4998348;28;45327;-75
2022/01/08 07:22:51;;;;;;;;;2.00;0.75;;;;;5.57;75.34;101221.34;4996044;28;45259;-75
2022/01/08 07:25:17;;;;;;;;;4.75;1.00;;;;;5.56;76.20;101214.28;4997416;28;46273;-74
2022/01/08 07:27:43;;;;;;;;;3.00;1.00;;;;;5.52;75.47;101211.47;4997031;28;45335;-74
2022/01/08 07:30:10;;;;;;;;;3.00;2.00;;;;;5.56;75.64;101218.63;4990652;28;45329;-75
2022/01/08 07:32:50;;;;;;;;;1.25;1.25;;;;;5.38;75.36;101188.03;4997298;28;45272;-75
2022/01/08 07:35:19;;;;;;;;;3.00;1.25;;;;;5.32;76.42;101172.00;4987558;28;47065;-75
2022/01/08 07:37:44;;;;;;;;;4.75;1.00;;;;;5.45;75.64;101198.84;4982111;28;45562;-75
2022/01/08 07:40:12;;;;;;;;;7.25;1.00;;;;;5.52;76.32;101219.31;4999470;28;45247;-75
2022/01/08 07:42:38;;;;;;;;;3.00;1.00;;;;;5.52;75.73;101214.97;4991590;28;45515;-75
2022/01/08 07:45:06;;;;;;;;;2.00;1.00;;;;;5.53;76.69;101208.91;4993046;28;45332;-76
2022/01/08 07:47:31;;;;;;;;;6.00;1.00;;;;;5.47;75.89;101192.84;4994604;28;45258;-75
2022/01/08 07:49:57;;;;;;;;;2.50;2.00;;;;;5.29;76.45;101161.38;4995948;28;45407;-75
2022/01/08 07:52:22;;;;;;;;;3.00;2.00;;;;;5.53;77.44;101194.88;4995641;28;45638;-75
2022/01/08 07:54:47;;;;;;;;;2.00;2.00;;;;;5.56;77.66;101187.19;4995701;28;45972;-75
2022/01/08 07:57:13;;;;;;;;;5.00;2.00;;;;;5.29;77.58;101123.75;4996916;28;45604;-75
2022/01/08 07:59:38;;;;;;;;;5.00;2.00;;;;;5.68;76.25;101193.03;5026278;28;45408;-75
2022/01/08 08:02:04;;;;;;;;;5.00;3.00;;;;;5.68;77.48;101187.78;4996951;28;45464;-74
2022/01/08 08:04:29;;;;;;;;;1.00;1.00;;;;;5.56;77.11;101150.47;5010513;28;46938;-75
2022/01/08 08:06:54;;;;;;;;;3.75;2.25;;;;;5.66;77.45;101162.31;5012156;28;45288;-75
2022/01/08 08:09:20;;;;;;;;;5.75;3.00;;;;;5.74;77.30;101169.75;4994273;28;45290;-75
2022/01/08 08:11:45;;;;;;;;;3.50;3.00;;;;;5.89;76.89;101193.22;5012976;28;46475;-75
2022/01/08 08:14:11;;;;;;;;;4.50;4.50;;;;;5.78;77.92;101163.81;4990588;28;45490;-75
2022/01/08 08:16:36;;;;;;;;;9.00;4.00;;;;;5.72;76.78;101134.69;4998185;28;45326;-75
2022/01/08 08:19:02;;;;;;;;;8.00;4.75;;;;;5.81;77.01;101131.59;4992348;28;45250;-75
2022/01/08 08:21:27;;;;;;;;;6.75;1.75;;;;;5.96;77.14;101150.72;4996774;28;47103;-75
2022/01/08 08:23:53;;;;;;;;;3.00;3.00;;;;;6.04;77.29;101164.22;4993556;28;45424;-75
2022/01/08 08:26:19;;;;;;;;;5.00;3.00;;;;;5.81;76.65;101106.25;4998289;28;44703;-75
2022/01/08 08:28:44;;;;;;;;;11.75;10.50;;;;;6.02;77.32;101132.69;4988266;28;45409;-76
2022/01/08 08:31:11;;;;;;;;;2.00;2.00;;;;;6.08;77.42;101131.16;4996752;28;46038;-75
2022/01/08 08:33:38;;;;;;;;;4.75;2.25;;;;;6.18;77.39;101147.41;4989641;28;45344;-75
2022/01/08 08:36:04;;;;;;;;;4.75;3.00;;;;;6.10;76.85;101109.41;4997891;28;45387;-75
2022/01/08 08:38:29;;;;;;;;;7.00;4.00;;;;;6.10;76.42;101098.91;4992609;28;45478;-75
2022/01/08 08:40:54;;;;;;;;;34.25;27.00;;;;;6.15;78.23;101100.03;5001340;28;45347;-75
2022/01/08 08:43:20;;;;;;;;;5.50;3.50;;;;;6.07;77.79;101080.41;4993670;28;45419;-75
2022/01/08 08:45:46;;;;;;;;;12.25;9.25;;;;;6.21;78.33;101099.41;4996332;28;45341;-77
2022/01/08 08:48:11;;;;;;;;;7.25;5.75;;;;;6.18;77.50;101081.78;5000659;28;45437;-75
2022/01/08 08:50:37;;;;;;;;;6.00;3.25;;;;;6.27;77.49;101087.50;4996368;28;45443;-75
2022/01/08 08:53:02;;;;;;;;;9.00;5.75;;;;;6.31;77.77;101085.91;5001842;28;45339;-75
2022/01/08 08:55:27;;;;;;;;;7.25;4.25;;;;;6.40;78.45;101090.66;4996860;28;45334;-75
2022/01/08 08:57:53;;;;;;;;;2.75;1.75;;;;;6.37;79.43;101078.28;5000919;28;45354;-75
2022/01/08 09:00:19;;;;;;;;;6.25;2.75;;;;;6.37;78.16;101073.03;4997877;28;45214;-75
2022/01/08 09:02:44;;;;;;;;;2.50;2.50;;;;;6.55;78.17;101093.97;4989800;28;47473;-74
2022/01/08 09:05:10;;;;;;;;;5.50;3.25;;;;;6.60;78.44;101088.94;5013799;28;45959;-76
2022/01/08 09:07:35;;;;;;;;;4.00;3.00;;;;;6.65;77.27;101090.94;4998518;28;45374;-75
2022/01/08 09:10:03;;;;;;;;;3.00;2.50;;;;;6.69;77.45;101087.63;4999855;28;45349;-75
2022/01/08 09:12:28;;;;;;;;;7.25;7.25;;;;;6.67;78.50;101070.91;4997223;28;45385;-75
2022/01/08 09:14:54;;;;;;;;;2.00;2.00;;;;;6.79;77.46;101082.78;4999382;28;45262;-75
2022/01/08 09:17:20;;;;;;;;;3.00;3.00;;;;;6.73;78.05;101060.66;4997359;28;45368;-75
2022/01/08 09:19:46;;;;;;;;;5.00;5.00;;;;;6.92;77.98;101067.63;5000021;28;45308;-75
2022/01/08 09:22:12;;;;;;;;;3.75;3.25;;;;;6.98;77.51;101064.34;4999042;28;46029;-75
2022/01/08 09:24:38;;;;;;;;;4.00;3.00;;;;;6.98;77.64;101042.44;5000795;28;45203;-75
2022/01/08 09:27:04;;;;;;;;;7.00;5.00;;;;;6.99;77.99;101042.50;4996810;28;45275;-75
2022/01/08 09:29:29;;;;;;;;;6.75;3.00;;;;;7.05;78.04;101042.75;5000923;28;45546;-75
2022/01/08 09:31:55;;;;;;;;;6.00;4.00;;;;;7.17;78.23;101060.78;5007686;28;48624;-75
2022/01/08 09:34:20;;;;;;;;;3.00;3.00;;;;;7.24;77.54;101051.41;4999332;28;46422;-75
2022/01/08 09:36:47;;;;;;;;;8.25;3.00;;;;;7.30;77.07;101039.41;4988192;28;45299;-75
2022/01/08 09:39:13;;;;;;;;;6.75;3.25;;;;;7.36;78.09;101034.41;4999198;28;46237;-75
2022/01/08 09:41:39;;;;;;;;;6.75;4.00;;;;;7.49;78.28;101045.44;4999071;28;45476;-75
2022/01/08 09:44:05;;;;;;;;;10.00;4.50;;;;;7.43;77.60;101022.41;5000274;28;45335;-75
2022/01/08 09:46:30;;;;;;;;;12.00;8.75;;;;;7.48;78.52;101012.06;4992245;28;45220;-75
2022/01/08 09:48:55;;;;;;;;;18.25;13.00;;;;;7.49;76.94;101004.25;4998719;28;47283;-75
2022/01/08 09:51:21;;;;;;;;;6.00;6.00;;;;;7.60;77.58;101004.69;4992910;28;46808;-75
2022/01/08 09:53:46;;;;;;;;;7.00;5.00;;;;;7.57;78.12;100981.78;5014465;28;45318;-77
2022/01/08 09:56:12;;;;;;;;;13.00;9.25;;;;;7.65;77.64;100987.34;4995989;28;45279;-76
2022/01/08 09:58:38;;;;;;;;;3.25;3.00;;;;;7.79;77.78;100999.31;4999284;28;45701;-77
2022/01/08 10:01:21;;;;;;;;;7.00;6.00;;;;;7.83;77.85;100992.41;4994482;28;46099;-78
2022/01/08 10:03:46;;;;;;;;;2.50;2.25;;;;;7.77;77.66;100971.13;4991439;28;45444;-75
2022/01/08 10:06:12;;;;;;;;;11.75;9.00;;;;;7.74;77.64;100955.22;4990351;28;45247;-74
2022/01/08 10:08:41;;;;;;;;;9.50;5.00;;;;;7.87;77.31;100973.28;5000769;28;45280;-75
2022/01/08 10:11:07;;;;;;;;;6.75;6.75;;;;;7.92;77.79;100971.69;4994427;28;45695;-75
2022/01/08 10:13:36;;;;;;;;;3.75;3.75;;;;;8.01;77.25;100973.78;4999956;28;45267;-75
2022/01/08 10:18:49;;;;;;;;;7.00;3.00;;;;;8.03;77.31;100951.03;5000284;28;45260;-74
2022/01/08 10:21:20;;;;;;;;;4.50;4.00;;;;;8.09;76.75;100946.00;4998198;28;47109;-75
2022/01/08 10:23:49;;;;;;;;;3.00;3.00;;;;;8.21;76.99;100964.00;5000325;28;45176;-75
2022/01/08 10:26:17;;;;;;;;;2.75;2.00;;;;;8.09;77.19;100938.09;4988471;28;46364;-76
2022/01/08 10:28:51;;;;;;;;;4.50;2.50;;;;;8.21;77.13;100950.84;4994560;28;46058;-75
2022/01/08 10:31:22;;;;;;;;;7.25;3.25;;;;;8.27;76.98;100948.41;4991100;28;47401;-75
2022/01/08 10:34:08;;;;;;;;;3.50;2.50;;;;;8.28;77.62;100953.72;4997532;28;45237;-75
2022/01/08 10:36:39;;;;;;;;;3.50;3.50;;;;;8.19;76.98;100937.59;4991344;28;45569;-76
2022/01/08 10:39:24;;;;;;;;;7.00;4.50;;;;;8.30;77.58;100938.88;5001262;28;47023;-76
2022/01/08 10:41:52;;;;;;;;;5.25;4.75;;;;;8.13;77.79;100897.91;4994761;28;45421;-76
2022/01/08 10:44:17;;;;;;;;;12.25;8.50;;;;;8.30;78.35;100925.72;4995824;28;45448;-76
2022/01/08 10:47:02;;;;;;;;;4.75;4.75;;;;;8.33;77.09;100916.13;4998079;28;45476;-76
2022/01/08 10:49:30;;;;;;;;;7.00;4.25;;;;;8.34;76.91;100910.03;4997679;28;45408;-76
2022/01/08 10:52:06;;;;;;;;;3.25;3.00;;;;;8.16;77.41;100870.78;4997712;28;45474;-75
2022/01/08 10:54:36;;;;;;;;;7.00;4.50;;;;;8.32;77.31;100902.09;4998638;28;45290;-78
2022/01/08 10:57:06;;;;;;;;;6.25;3.25;;;;;8.29;77.22;100883.53;4997175;28;45369;-78
2022/01/08 10:59:32;;;;;;;;;5.00;5.00;;;;;8.16;78.16;100855.88;4997869;28;45328;-75
2022/01/08 11:02:14;;;;;;;;;3.50;3.00;;;;;8.36;76.94;100882.91;4996005;28;46406;-75
2022/01/08 11:04:49;;;;;;;;;3.00;3.00;;;;;8.00;77.95;100820.22;4997823;28;45213;-76
2022/01/08 11:07:20;;;;;;;;;8.75;4.00;;;;;8.37;77.66;100865.34;4995087;28;45329;-78
2022/01/08 11:09:48;;;;;;;;;11.75;5.75;;;;;8.34;77.16;100852.06;4997572;28;45299;-76
2022/01/08 11:12:29;;;;;;;;;2.50;0.75;;;;;8.24;77.44;100832.44;4996514;28;45420;-75
2022/01/08 11:17:36;;;;;;;;;7.00;4.00;;;;;8.38;77.49;100846.09;4993407;28;45476;-76
2022/01/08 11:20:20;;;;;;;;;4.00;2.00;;;;;8.35;77.52;100827.56;4998221;28;46228;-75
2022/01/08 11:22:51;;;;;;;;;3.75;3.00;;;;;8.26;77.07;100805.34;4989456;28;48732;-75
2022/01/08 11:25:19;;;;;;;;;6.00;4.00;;;;;8.41;77.84;100817.25;4995074;28;45291;-76
2022/01/08 11:28:05;;;;;;;;;6.00;6.00;;;;;8.19;77.67;100774.34;4995548;28;45246;-75
2022/01/08 11:30:47;;;;;;;;;4.25;3.00;;;;;8.38;78.24;100806.59;4995508;28;46379;-75
2022/01/08 11:33:31;;;;;;;;;13.00;6.50;;;;;8.13;78.15;100750.47;4996405;28;46521;-75
2022/01/08 11:35:58;;;;;;;;;5.00;3.25;;;;;8.21;78.09;100761.25;4989594;28;45488;-74
2022/01/08 11:38:26;;;;;;;;;7.50;4.00;;;;;8.29;77.35;100752.75;4994151;28;45194;-76
2022/01/08 11:40:53;;;;;;;;;5.75;3.75;;;;;8.44;77.47;100769.94;4997220;28;46255;-76
2022/01/08 11:43:22;;;;;;;;;6.50;2.00;;;;;8.40;77.48;100750.50;4989199;28;45344;-75
2022/01/08 11:46:08;;;;;;;;;4.25;2.75;;;;;8.47;77.80;100754.22;4998859;28;45313;-75
2022/01/08 11:48:43;;;;;;;;;4.50;4.50;;;;;8.37;78.17;100731.91;4994265;28;45500;-75
2022/01/08 11:51:16;;;;;;;;;6.00;3.25;;;;;8.43;77.27;100723.34;4999257;28;45238;-75
2022/01/08 11:53:50;;;;;;;;;3.75;2.00;;;;;8.37;77.51;100702.06;5002227;28;48291;-75
2022/01/08 11:56:24;;;;;;;;;9.75;5.50;;;;;8.19;77.03;100661.13;5014449;28;45335;-75
2022/01/08 11:59:16;;;;;;;;;10.00;5.00;;;;;8.47;77.29;100696.28;4988644;28;45352;-75